sensor_id;sensor_type;location;lat;lon;timestamp;temperature;humidity
32348;DHT22;18821;44.800;10.326;2023-07-13T00:03:03;25.30;99.90
32348;DHT22;18821;44.800;10.326;2023-07-13T00:05:30;25.60;99.90
32348;DHT22;18821;44.800;10.326;2023-07-13T00:07:56;24.90;99.90
32348;DHT22;18821;44.800;10.326;2023-07-13T00:10:23;25.40;99.90
32348;DHT22;18821;44.800;10.326;2023-07-13T00:12:49;24.90;99.90
32348;DHT22;18821;44.800;10.326;2023-07-13T00:15:24;25.20;99.90
32348;DHT22;18821;44.800;10.326;2023-07-13T00:17:52;25.20;99.90
32348;DHT22;18821;44.800;10.326;2023-07-13T00:20:19;24.90;99.90
32348;DHT22;18821;44.800;10.326;2023-07-13T00:22:48;25.20;99.90
32348;DHT22;18821;44.800;10.326;2023-07-13T00:25:14;24.80;99.90
32348;DHT22;18821;44.800;10.326;2023-07-13T00:27:42;25.00;99.90
32348;DHT22;18821;44.800;10.326;2023-07-13T00:30:08;25.20;99.90
32348;DHT22;18821;44.800;10.326;2023-07-13T00:32:34;25.10;99.90
32348;DHT22;18821;44.800;10.326;2023-07-13T00:35:01;24.60;99.90
32348;DHT22;18821;44.800;10.326;2023-07-13T00:37:29;25.00;99.90
32348;DHT22;18821;44.800;10.326;2023-07-13T00:42:23;25.70;99.90
32348;DHT22;18821;44.800;10.326;2023-07-13T00:47:39;25.80;99.90
32348;DHT22;18821;44.800;10.326;2023-07-13T00:50:08;25.40;99.90
32348;DHT22;18821;44.800;10.326;2023-07-13T00:52:37;25.80;99.90
32348;DHT22;18821;44.800;10.326;2023-07-13T00:55:04;25.90;99.90
32348;DHT22;18821;44.800;10.326;2023-07-13T00:57:30;25.10;99.90
32348;DHT22;18821;44.800;10.326;2023-07-13T01:00:00;25.50;99.90
32348;DHT22;18821;44.800;10.326;2023-07-13T01:02:33;25.60;99.90
32348;DHT22;18821;44.800;10.326;2023-07-13T01:04:59;26.00;99.90
32348;DHT22;18821;44.800;10.326;2023-07-13T01:07:27;25.30;99.90
32348;DHT22;18821;44.800;10.326;2023-07-13T01:14:59;25.40;99.90
32348;DHT22;18821;44.800;10.326;2023-07-13T01:17:27;24.80;99.90
32348;DHT22;18821;44.800;10.326;2023-07-13T01:22:23;25.70;99.90
32348;DHT22;18821;44.800;10.326;2023-07-13T01:24:53;24.90;99.90
32348;DHT22;18821;44.800;10.326;2023-07-13T01:27:25;25.20;99.90
32348;DHT22;18821;44.800;10.326;2023-07-13T01:29:52;25.80;99.90
32348;DHT22;18821;44.800;10.326;2023-07-13T01:32:21;25.60;99.90
32348;DHT22;18821;44.800;10.326;2023-07-13T01:34:53;25.80;99.90
32348;DHT22;18821;44.800;10.326;2023-07-13T01:37:21;26.00;99.90
32348;DHT22;18821;44.800;10.326;2023-07-13T01:39:47;25.20;99.90
32348;DHT22;18821;44.800;10.326;2023-07-13T01:42:13;24.90;99.90
32348;DHT22;18821;44.800;10.326;2023-07-13T01:47:07;25.00;99.90
32348;DHT22;18821;44.800;10.326;2023-07-13T01:49:33;25.30;99.90
32348;DHT22;18821;44.800;10.326;2023-07-13T01:51:59;25.50;99.90
32348;DHT22;18821;44.800;10.326;2023-07-13T01:54:25;24.90;99.90
32348;DHT22;18821;44.800;10.326;2023-07-13T01:56:51;25.40;99.90
32348;DHT22;18821;44.800;10.326;2023-07-13T01:59:17;25.60;99.90
32348;DHT22;18821;44.800;10.326;2023-07-13T02:09:02;25.90;99.90
32348;DHT22;18821;44.800;10.326;2023-07-13T02:11:28;25.40;99.90
32348;DHT22;18821;44.800;10.326;2023-07-13T02:14:00;24.90;99.90
32348;DHT22;18821;44.800;10.326;2023-07-13T02:16:30;25.40;99.90
32348;DHT22;18821;44.800;10.326;2023-07-13T02:18:56;25.20;99.90
32348;DHT22;18821;44.800;10.326;2023-07-13T02:21:23;25.20;99.90
32348;DHT22;18821;44.800;10.326;2023-07-13T02:23:51;25.70;99.90
32348;DHT22;18821;44.800;10.326;2023-07-13T02:26:18;25.40;99.90
32348;DHT22;18821;44.800;10.326;2023-07-13T02:28:44;25.20;99.90
32348;DHT22;18821;44.800;10.326;2023-07-13T02:31:13;25.20;99.90
32348;DHT22;18821;44.800;10.326;2023-07-13T02:36:06;24.80;99.90
32348;DHT22;18821;44.800;10.326;2023-07-13T02:38:33;24.80;99.90
32348;DHT22;18821;44.800;10.326;2023-07-13T02:41:02;25.20;99.90
32348;DHT22;18821;44.800;10.326;2023-07-13T02:43:29;25.10;99.90
32348;DHT22;18821;44.800;10.326;2023-07-13T02:45:55;25.20;99.90
32348;DHT22;18821;44.800;10.326;2023-07-13T02:48:21;24.60;99.90
32348;DHT22;18821;44.800;10.326;2023-07-13T02:50:47;25.50;99.90
32348;DHT22;18821;44.800;10.326;2023-07-13T02:53:13;25.00;99.90
32348;DHT22;18821;44.800;10.326;2023-07-13T02:55:39;24.90;99.90
32348;DHT22;18821;44.800;10.326;2023-07-13T02:58:07;25.20;99.90
32348;DHT22;18821;44.800;10.326;2023-07-13T03:00:33;24.70;99.90
32348;DHT22;18821;44.800;10.326;2023-07-13T03:03:00;25.70;99.90
32348;DHT22;18821;44.800;10.326;2023-07-13T03:07:52;25.60;99.90
32348;DHT22;18821;44.800;10.326;2023-07-13T03:10:21;24.70;99.90
32348;DHT22;18821;44.800;10.326;2023-07-13T03:12:49;25.60;99.90
32348;DHT22;18821;44.800;10.326;2023-07-13T03:15:22;24.50;99.90
32348;DHT22;18821;44.800;10.326;2023-07-13T03:17:49;25.20;99.90
32348;DHT22;18821;44.800;10.326;2023-07-13T03:20:15;25.60;99.90
32348;DHT22;18821;44.800;10.326;2023-07-13T03:22:42;25.00;99.90
32348;DHT22;18821;44.800;10.326;2023-07-13T03:25:08;25.20;99.90
32348;DHT22;18821;44.800;10.326;2023-07-13T03:30:04;24.90;99.90
32348;DHT22;18821;44.800;10.326;2023-07-13T03:32:31;25.10;99.90
32348;DHT22;18821;44.800;10.326;2023-07-13T03:34:58;24.90;99.90
32348;DHT22;18821;44.800;10.326;2023-07-13T03:37:24;25.20;99.90
32348;DHT22;18821;44.800;10.326;2023-07-13T03:39:51;25.40;99.90
32348;DHT22;18821;44.800;10.326;2023-07-13T03:42:19;25.10;99.90
32348;DHT22;18821;44.800;10.326;2023-07-13T03:44:45;25.30;99.90
32348;DHT22;18821;44.800;10.326;2023-07-13T03:47:18;25.30;99.90
32348;DHT22;18821;44.800;10.326;2023-07-13T03:49:44;24.80;99.90
32348;DHT22;18821;44.800;10.326;2023-07-13T03:52:11;24.40;99.90
32348;DHT22;18821;44.800;10.326;2023-07-13T03:54:37;25.00;99.90
32348;DHT22;18821;44.800;10.326;2023-07-13T03:57:04;25.40;99.90
32348;DHT22;18821;44.800;10.326;2023-07-13T03:59:34;24.70;99.90
32348;DHT22;18821;44.800;10.326;2023-07-13T04:02:01;24.10;99.90
32348;DHT22;18821;44.800;10.326;2023-07-13T04:04:27;24.30;99.90
32348;DHT22;18821;44.800;10.326;2023-07-13T04:06:53;24.10;99.90
32348;DHT22;18821;44.800;10.326;2023-07-13T04:09:19;24.50;99.90
32348;DHT22;18821;44.800;10.326;2023-07-13T04:11:45;24.00;99.90
32348;DHT22;18821;44.800;10.326;2023-07-13T04:14:11;24.40;99.90
32348;DHT22;18821;44.800;10.326;2023-07-13T04:16:37;24.50;99.90
32348;DHT22;18821;44.800;10.326;2023-07-13T04:21:30;24.10;99.90
32348;DHT22;18821;44.800;10.326;2023-07-13T04:23:56;24.00;99.90
32348;DHT22;18821;44.800;10.326;2023-07-13T04:26:22;24.70;99.90
32348;DHT22;18821;44.800;10.326;2023-07-13T04:28:50;24.60;99.90
32348;DHT22;18821;44.800;10.326;2023-07-13T04:31:16;23.90;99.90
32348;DHT22;18821;44.800;10.326;2023-07-13T04:33:42;24.30;99.90
32348;DHT22;18821;44.800;10.326;2023-07-13T04:36:09;24.80;99.90
32348;DHT22;18821;44.800;10.326;2023-07-13T04:41:06;24.80;99.90
32348;DHT22;18821;44.800;10.326;2023-07-13T04:43:33;25.10;99.90
32348;DHT22;18821;44.800;10.326;2023-07-13T04:46:11;24.90;99.90
32348;DHT22;18821;44.800;10.326;2023-07-13T04:48:38;24.70;99.90
32348;DHT22;18821;44.800;10.326;2023-07-13T04:51:04;23.60;99.90
32348;DHT22;18821;44.800;10.326;2023-07-13T04:53:31;24.60;99.90
32348;DHT22;18821;44.800;10.326;2023-07-13T04:55:58;24.10;99.90
32348;DHT22;18821;44.800;10.326;2023-07-13T04:58:24;24.20;99.90
32348;DHT22;18821;44.800;10.326;2023-07-13T05:00:51;23.70;99.90
32348;DHT22;18821;44.800;10.326;2023-07-13T05:05:43;24.20;99.90
32348;DHT22;18821;44.800;10.326;2023-07-13T05:10:46;23.10;99.90
32348;DHT22;18821;44.800;10.326;2023-07-13T05:15:38;23.40;99.90
32348;DHT22;18821;44.800;10.326;2023-07-13T05:18:04;23.40;99.90
32348;DHT22;18821;44.800;10.326;2023-07-13T05:22:56;22.90;99.90
32348;DHT22;18821;44.800;10.326;2023-07-13T05:25:22;23.10;99.90
32348;DHT22;18821;44.800;10.326;2023-07-13T05:30:14;22.90;99.90
32348;DHT22;18821;44.800;10.326;2023-07-13T05:32:41;23.20;99.90
32348;DHT22;18821;44.800;10.326;2023-07-13T05:35:07;23.30;99.90
32348;DHT22;18821;44.800;10.326;2023-07-13T05:40:00;23.30;99.90
32348;DHT22;18821;44.800;10.326;2023-07-13T05:42:26;23.10;99.90
32348;DHT22;18821;44.800;10.326;2023-07-13T05:52:10;23.50;99.90
32348;DHT22;18821;44.800;10.326;2023-07-13T05:54:36;23.90;99.90
32348;DHT22;18821;44.800;10.326;2023-07-13T05:57:02;24.30;99.90
32348;DHT22;18821;44.800;10.326;2023-07-13T06:01:54;24.70;99.90
32348;DHT22;18821;44.800;10.326;2023-07-13T06:04:20;24.40;99.90
32348;DHT22;18821;44.800;10.326;2023-07-13T06:09:12;24.70;99.90
32348;DHT22;18821;44.800;10.326;2023-07-13T06:11:38;24.80;99.90
32348;DHT22;18821;44.800;10.326;2023-07-13T06:14:04;23.30;99.90
32348;DHT22;18821;44.800;10.326;2023-07-13T06:16:30;23.50;99.90
32348;DHT22;18821;44.800;10.326;2023-07-13T06:18:56;24.10;99.90
32348;DHT22;18821;44.800;10.326;2023-07-13T06:21:23;23.80;99.90
32348;DHT22;18821;44.800;10.326;2023-07-13T06:23:50;23.70;99.90
32348;DHT22;18821;44.800;10.326;2023-07-13T06:26:18;23.80;99.90
32348;DHT22;18821;44.800;10.326;2023-07-13T06:28:44;23.80;99.90
32348;DHT22;18821;44.800;10.326;2023-07-13T06:31:11;24.70;99.90
32348;DHT22;18821;44.800;10.326;2023-07-13T06:33:38;23.40;99.90
32348;DHT22;18821;44.800;10.326;2023-07-13T06:36:06;23.90;99.90
32348;DHT22;18821;44.800;10.326;2023-07-13T06:40:59;24.30;99.90
32348;DHT22;18821;44.800;10.326;2023-07-13T06:45:55;24.40;99.90
32348;DHT22;18821;44.800;10.326;2023-07-13T06:50:48;24.30;99.90
32348;DHT22;18821;44.800;10.326;2023-07-13T06:53:15;24.60;99.90
32348;DHT22;18821;44.800;10.326;2023-07-13T06:55:43;23.80;99.90
32348;DHT22;18821;44.800;10.326;2023-07-13T07:00:35;24.70;99.90
32348;DHT22;18821;44.800;10.326;2023-07-13T07:07:55;24.30;99.90
32348;DHT22;18821;44.800;10.326;2023-07-13T07:10:21;24.60;99.90
32348;DHT22;18821;44.800;10.326;2023-07-13T07:12:48;24.30;99.90
32348;DHT22;18821;44.800;10.326;2023-07-13T07:20:07;24.20;99.90
32348;DHT22;18821;44.800;10.326;2023-07-13T07:27:25;25.00;99.90
32348;DHT22;18821;44.800;10.326;2023-07-13T07:29:51;24.60;99.90
32348;DHT22;18821;44.800;10.326;2023-07-13T07:32:18;24.40;99.90
32348;DHT22;18821;44.800;10.326;2023-07-13T07:37:12;24.30;99.90
32348;DHT22;18821;44.800;10.326;2023-07-13T07:39:38;24.20;99.90
32348;DHT22;18821;44.800;10.326;2023-07-13T07:42:04;24.20;99.90
32348;DHT22;18821;44.800;10.326;2023-07-13T07:44:31;24.20;99.90
32348;DHT22;18821;44.800;10.326;2023-07-13T07:49:24;24.60;99.90
32348;DHT22;18821;44.800;10.326;2023-07-13T07:51:50;24.20;99.90
32348;DHT22;18821;44.800;10.326;2023-07-13T07:54:17;23.50;99.90
32348;DHT22;18821;44.800;10.326;2023-07-13T08:01:36;23.70;99.90
32348;DHT22;18821;44.800;10.326;2023-07-13T08:04:02;23.30;99.90
32348;DHT22;18821;44.800;10.326;2023-07-13T08:06:28;23.60;99.90
32348;DHT22;18821;44.800;10.326;2023-07-13T08:08:55;23.20;99.90
32348;DHT22;18821;44.800;10.326;2023-07-13T08:11:22;22.90;99.90
32348;DHT22;18821;44.800;10.326;2023-07-13T08:18:40;23.00;99.90
32348;DHT22;18821;44.800;10.326;2023-07-13T08:21:07;22.70;99.90
32348;DHT22;18821;44.800;10.326;2023-07-13T08:23:35;22.40;99.90
32348;DHT22;18821;44.800;10.326;2023-07-13T08:26:01;22.90;99.90
32348;DHT22;18821;44.800;10.326;2023-07-13T08:28:28;23.80;99.90
32348;DHT22;18821;44.800;10.326;2023-07-13T08:33:22;23.20;99.90
32348;DHT22;18821;44.800;10.326;2023-07-13T08:35:50;23.50;99.90
32348;DHT22;18821;44.800;10.326;2023-07-13T08:38:17;22.80;99.90
32348;DHT22;18821;44.800;10.326;2023-07-13T08:40:44;22.30;99.90
32348;DHT22;18821;44.800;10.326;2023-07-13T08:43:28;23.10;99.90
32348;DHT22;18821;44.800;10.326;2023-07-13T08:48:48;23.10;99.90
32348;DHT22;18821;44.800;10.326;2023-07-13T08:51:45;22.80;99.90
32348;DHT22;18821;44.800;10.326;2023-07-13T08:54:26;23.00;99.90
32348;DHT22;18821;44.800;10.326;2023-07-13T08:59:24;23.50;99.90
32348;DHT22;18821;44.800;10.326;2023-07-13T09:02:15;23.70;99.90
32348;DHT22;18821;44.800;10.326;2023-07-13T09:04:48;23.60;99.90
32348;DHT22;18821;44.800;10.326;2023-07-13T09:07:38;22.50;99.90
32348;DHT22;18821;44.800;10.326;2023-07-13T09:13:11;23.70;99.90
32348;DHT22;18821;44.800;10.326;2023-07-13T09:15:47;22.70;99.90
32348;DHT22;18821;44.800;10.326;2023-07-13T09:18:33;22.70;99.90
32348;DHT22;18821;44.800;10.326;2023-07-13T09:21:14;23.50;99.90
32348;DHT22;18821;44.800;10.326;2023-07-13T09:23:41;24.30;99.90
32348;DHT22;18821;44.800;10.326;2023-07-13T09:26:14;24.90;99.90
32348;DHT22;18821;44.800;10.326;2023-07-13T09:28:47;25.80;99.90
32348;DHT22;18821;44.800;10.326;2023-07-13T09:36:32;26.80;99.90
32348;DHT22;18821;44.800;10.326;2023-07-13T09:41:51;27.40;99.90
32348;DHT22;18821;44.800;10.326;2023-07-13T09:44:37;26.80;99.90
32348;DHT22;18821;44.800;10.326;2023-07-13T09:47:21;26.90;99.90
32348;DHT22;18821;44.800;10.326;2023-07-13T09:50:04;27.00;99.90
32348;DHT22;18821;44.800;10.326;2023-07-13T09:52:41;27.50;99.90
32348;DHT22;18821;44.800;10.326;2023-07-13T09:55:22;27.50;99.90
32348;DHT22;18821;44.800;10.326;2023-07-13T09:57:48;26.00;99.90
32348;DHT22;18821;44.800;10.326;2023-07-13T10:00:24;25.90;99.90
32348;DHT22;18821;44.800;10.326;2023-07-13T10:03:21;26.70;99.90
32348;DHT22;18821;44.800;10.326;2023-07-13T10:05:49;27.70;99.90
32348;DHT22;18821;44.800;10.326;2023-07-13T10:08:19;27.20;99.90
32348;DHT22;18821;44.800;10.326;2023-07-13T10:10:46;27.70;99.90
32348;DHT22;18821;44.800;10.326;2023-07-13T10:13:45;28.10;99.90
32348;DHT22;18821;44.800;10.326;2023-07-13T10:16:11;28.20;99.90
32348;DHT22;18821;44.800;10.326;2023-07-13T10:21:17;28.20;99.90
32348;DHT22;18821;44.800;10.326;2023-07-13T10:23:48;28.60;99.90
32348;DHT22;18821;44.800;10.326;2023-07-13T10:26:21;28.90;99.90
32348;DHT22;18821;44.800;10.326;2023-07-13T10:28:52;29.10;99.90
32348;DHT22;18821;44.800;10.326;2023-07-13T10:31:19;29.40;99.90
32348;DHT22;18821;44.800;10.326;2023-07-13T10:36:42;29.40;99.90
32348;DHT22;18821;44.800;10.326;2023-07-13T10:39:16;29.70;99.90
32348;DHT22;18821;44.800;10.326;2023-07-13T10:41:44;28.30;99.90
32348;DHT22;18821;44.800;10.326;2023-07-13T10:44:24;28.60;99.90
32348;DHT22;18821;44.800;10.326;2023-07-13T10:47:13;28.50;99.90
32348;DHT22;18821;44.800;10.326;2023-07-13T10:49:41;29.60;99.90
32348;DHT22;18821;44.800;10.326;2023-07-13T10:58:10;29.20;99.90
32348;DHT22;18821;44.800;10.326;2023-07-13T11:00:46;28.80;99.90
32348;DHT22;18821;44.800;10.326;2023-07-13T11:03:15;28.50;99.90
32348;DHT22;18821;44.800;10.326;2023-07-13T11:05:42;28.20;99.90
32348;DHT22;18821;44.800;10.326;2023-07-13T11:08:19;29.30;99.90
32348;DHT22;18821;44.800;10.326;2023-07-13T11:10:50;28.30;99.90
32348;DHT22;18821;44.800;10.326;2023-07-13T11:18:48;28.40;99.90
32348;DHT22;18821;44.800;10.326;2023-07-13T11:21:22;28.60;99.90
32348;DHT22;18821;44.800;10.326;2023-07-13T11:23:53;28.80;99.90
32348;DHT22;18821;44.800;10.326;2023-07-13T11:29:39;28.30;99.90
32348;DHT22;18821;44.800;10.326;2023-07-13T11:32:29;28.20;99.90
32348;DHT22;18821;44.800;10.326;2023-07-13T11:34:56;29.00;99.90
32348;DHT22;18821;44.800;10.326;2023-07-13T11:37:24;27.80;99.90
32348;DHT22;18821;44.800;10.326;2023-07-13T11:39:51;29.20;99.90
32348;DHT22;18821;44.800;10.326;2023-07-13T11:42:18;29.40;99.90
32348;DHT22;18821;44.800;10.326;2023-07-13T11:44:50;28.90;99.90
32348;DHT22;18821;44.800;10.326;2023-07-13T11:47:21;29.50;99.90
32348;DHT22;18821;44.800;10.326;2023-07-13T11:49:53;29.80;99.90
32348;DHT22;18821;44.800;10.326;2023-07-13T11:52:26;30.20;99.90
32348;DHT22;18821;44.800;10.326;2023-07-13T11:54:55;30.50;99.90
32348;DHT22;18821;44.800;10.326;2023-07-13T11:57:25;30.80;99.90
32348;DHT22;18821;44.800;10.326;2023-07-13T11:59:54;31.00;99.90
32348;DHT22;18821;44.800;10.326;2023-07-13T12:02:32;31.30;99.90
32348;DHT22;18821;44.800;10.326;2023-07-13T12:05:00;31.40;99.90
32348;DHT22;18821;44.800;10.326;2023-07-13T12:07:32;30.80;99.90
32348;DHT22;18821;44.800;10.326;2023-07-13T12:12:36;31.20;99.90
32348;DHT22;18821;44.800;10.326;2023-07-13T12:15:07;31.40;99.90
32348;DHT22;18821;44.800;10.326;2023-07-13T12:17:35;31.70;99.90
32348;DHT22;18821;44.800;10.326;2023-07-13T12:20:03;31.30;99.90
32348;DHT22;18821;44.800;10.326;2023-07-13T12:22:34;31.20;99.90
32348;DHT22;18821;44.800;10.326;2023-07-13T12:25:00;30.90;99.90
32348;DHT22;18821;44.800;10.326;2023-07-13T12:27:27;30.70;99.90
32348;DHT22;18821;44.800;10.326;2023-07-13T12:29:59;31.50;99.90
32348;DHT22;18821;44.800;10.326;2023-07-13T12:32:27;31.00;99.90
32348;DHT22;18821;44.800;10.326;2023-07-13T12:34:55;31.40;99.90
32348;DHT22;18821;44.800;10.326;2023-07-13T12:37:22;31.50;99.90
32348;DHT22;18821;44.800;10.326;2023-07-13T12:39:49;34.10;99.90
32348;DHT22;18821;44.800;10.326;2023-07-13T12:45:18;31.10;99.90
32348;DHT22;18821;44.800;10.326;2023-07-13T12:47:48;31.30;99.90
32348;DHT22;18821;44.800;10.326;2023-07-13T12:50:20;31.50;99.90
32348;DHT22;18821;44.800;10.326;2023-07-13T12:52:56;31.50;99.90
32348;DHT22;18821;44.800;10.326;2023-07-13T12:55:25;31.70;99.90
32348;DHT22;18821;44.800;10.326;2023-07-13T12:57:54;31.90;99.90
32348;DHT22;18821;44.800;10.326;2023-07-13T13:00:30;32.10;99.90
32348;DHT22;18821;44.800;10.326;2023-07-13T13:03:03;31.20;99.90
32348;DHT22;18821;44.800;10.326;2023-07-13T13:05:32;30.40;99.90
32348;DHT22;18821;44.800;10.326;2023-07-13T13:08:00;30.30;99.90
32348;DHT22;18821;44.800;10.326;2023-07-13T13:10:26;30.50;99.90
32348;DHT22;18821;44.800;10.326;2023-07-13T13:12:52;30.60;99.90
32348;DHT22;18821;44.800;10.326;2023-07-13T13:20:16;30.30;99.90
32348;DHT22;18821;44.800;10.326;2023-07-13T13:25:13;30.40;99.90
32348;DHT22;18821;44.800;10.326;2023-07-13T13:27:41;30.40;99.90
32348;DHT22;18821;44.800;10.326;2023-07-13T13:30:16;30.70;99.90
32348;DHT22;18821;44.800;10.326;2023-07-13T13:32:46;30.80;99.90
32348;DHT22;18821;44.800;10.326;2023-07-13T13:35:17;30.70;99.90
32348;DHT22;18821;44.800;10.326;2023-07-13T13:40:18;30.90;99.90
32348;DHT22;18821;44.800;10.326;2023-07-13T13:42:44;30.50;99.90
32348;DHT22;18821;44.800;10.326;2023-07-13T13:45:11;31.00;99.90
32348;DHT22;18821;44.800;10.326;2023-07-13T13:47:43;30.80;99.90
32348;DHT22;18821;44.800;10.326;2023-07-13T13:50:22;30.80;99.90
32348;DHT22;18821;44.800;10.326;2023-07-13T13:55:18;30.50;99.90
32348;DHT22;18821;44.800;10.326;2023-07-13T13:57:48;30.80;99.90
32348;DHT22;18821;44.800;10.326;2023-07-13T14:00:15;30.70;99.90
32348;DHT22;18821;44.800;10.326;2023-07-13T14:02:46;30.20;99.90
32348;DHT22;18821;44.800;10.326;2023-07-13T14:05:18;30.20;99.90
32348;DHT22;18821;44.800;10.326;2023-07-13T14:07:45;30.20;99.90
32348;DHT22;18821;44.800;10.326;2023-07-13T14:10:15;30.40;99.90
32348;DHT22;18821;44.800;10.326;2023-07-13T14:12:43;30.50;99.90
32348;DHT22;18821;44.800;10.326;2023-07-13T14:17:45;30.90;99.90
32348;DHT22;18821;44.800;10.326;2023-07-13T14:20:16;31.20;99.90
32348;DHT22;18821;44.800;10.326;2023-07-13T14:22:42;30.80;99.90
32348;DHT22;18821;44.800;10.326;2023-07-13T14:25:15;30.50;99.90
32348;DHT22;18821;44.800;10.326;2023-07-13T14:27:43;30.90;99.90
32348;DHT22;18821;44.800;10.326;2023-07-13T14:30:18;31.00;99.90
32348;DHT22;18821;44.800;10.326;2023-07-13T14:35:12;31.50;99.90
32348;DHT22;18821;44.800;10.326;2023-07-13T14:37:39;31.10;99.90
32348;DHT22;18821;44.800;10.326;2023-07-13T14:40:30;30.70;99.90
32348;DHT22;18821;44.800;10.326;2023-07-13T14:42:57;30.20;99.90
32348;DHT22;18821;44.800;10.326;2023-07-13T14:45:24;30.80;99.90
32348;DHT22;18821;44.800;10.326;2023-07-13T14:50:20;30.50;99.90
32348;DHT22;18821;44.800;10.326;2023-07-13T14:52:47;30.50;99.90
32348;DHT22;18821;44.800;10.326;2023-07-13T14:55:16;30.50;99.90
32348;DHT22;18821;44.800;10.326;2023-07-13T15:00:17;31.10;99.90
32348;DHT22;18821;44.800;10.326;2023-07-13T15:02:46;31.10;99.90
32348;DHT22;18821;44.800;10.326;2023-07-13T15:05:18;31.30;99.90
32348;DHT22;18821;44.800;10.326;2023-07-13T15:07:44;30.80;99.90
32348;DHT22;18821;44.800;10.326;2023-07-13T15:10:14;31.30;99.90
32348;DHT22;18821;44.800;10.326;2023-07-13T15:12:40;31.10;99.90
32348;DHT22;18821;44.800;10.326;2023-07-13T15:15:06;31.30;99.90
32348;DHT22;18821;44.800;10.326;2023-07-13T15:17:38;31.30;99.90
32348;DHT22;18821;44.800;10.326;2023-07-13T15:22:40;31.90;99.90
32348;DHT22;18821;44.800;10.326;2023-07-13T15:25:16;31.80;99.90
32348;DHT22;18821;44.800;10.326;2023-07-13T15:30:09;31.20;99.90
32348;DHT22;18821;44.800;10.326;2023-07-13T15:32:35;30.80;99.90
32348;DHT22;18821;44.800;10.326;2023-07-13T15:35:01;31.30;99.90
32348;DHT22;18821;44.800;10.326;2023-07-13T15:39:53;31.40;99.90
32348;DHT22;18821;44.800;10.326;2023-07-13T15:42:20;30.60;99.90
32348;DHT22;18821;44.800;10.326;2023-07-13T15:44:47;31.30;99.90
32348;DHT22;18821;44.800;10.326;2023-07-13T15:47:14;31.10;99.90
32348;DHT22;18821;44.800;10.326;2023-07-13T15:52:18;30.80;99.90
32348;DHT22;18821;44.800;10.326;2023-07-13T15:54:46;30.50;99.90
32348;DHT22;18821;44.800;10.326;2023-07-13T15:57:13;30.70;99.90
32348;DHT22;18821;44.800;10.326;2023-07-13T15:59:40;30.70;99.90
32348;DHT22;18821;44.800;10.326;2023-07-13T16:02:17;31.40;99.90
32348;DHT22;18821;44.800;10.326;2023-07-13T16:07:10;31.10;99.90
32348;DHT22;18821;44.800;10.326;2023-07-13T16:12:14;31.10;99.90
32348;DHT22;18821;44.800;10.326;2023-07-13T16:14:41;30.90;99.90
32348;DHT22;18821;44.800;10.326;2023-07-13T16:17:11;31.20;99.90
32348;DHT22;18821;44.800;10.326;2023-07-13T16:24:31;31.00;99.90
32348;DHT22;18821;44.800;10.326;2023-07-13T16:26:58;31.20;99.90
32348;DHT22;18821;44.800;10.326;2023-07-13T16:29:29;31.20;99.90
32348;DHT22;18821;44.800;10.326;2023-07-13T16:32:01;31.70;99.90
32348;DHT22;18821;44.800;10.326;2023-07-13T16:34:32;31.40;99.90
32348;DHT22;18821;44.800;10.326;2023-07-13T16:36:59;31.50;99.90
32348;DHT22;18821;44.800;10.326;2023-07-13T16:39:26;31.10;99.90
32348;DHT22;18821;44.800;10.326;2023-07-13T16:41:54;30.90;99.90
32348;DHT22;18821;44.800;10.326;2023-07-13T16:44:21;31.30;99.90
32348;DHT22;18821;44.800;10.326;2023-07-13T16:46:52;31.50;99.90
32348;DHT22;18821;44.800;10.326;2023-07-13T16:49:31;31.70;99.90
32348;DHT22;18821;44.800;10.326;2023-07-13T16:51:58;31.80;99.90
32348;DHT22;18821;44.800;10.326;2023-07-13T16:54:30;31.80;99.90
32348;DHT22;18821;44.800;10.326;2023-07-13T16:56:57;32.10;99.90
32348;DHT22;18821;44.800;10.326;2023-07-13T16:59:32;32.10;99.90
32348;DHT22;18821;44.800;10.326;2023-07-13T17:02:00;32.10;99.90
32348;DHT22;18821;44.800;10.326;2023-07-13T17:04:27;32.20;99.90
32348;DHT22;18821;44.800;10.326;2023-07-13T17:06:56;32.30;99.90
32348;DHT22;18821;44.800;10.326;2023-07-13T17:09:23;32.00;99.90
32348;DHT22;18821;44.800;10.326;2023-07-13T17:11:50;31.40;99.90
32348;DHT22;18821;44.800;10.326;2023-07-13T17:14:18;30.90;99.90
32348;DHT22;18821;44.800;10.326;2023-07-13T17:16:49;30.10;99.90
32348;DHT22;18821;44.800;10.326;2023-07-13T17:19:17;31.00;99.90
32348;DHT22;18821;44.800;10.326;2023-07-13T17:21:47;31.00;99.90
32348;DHT22;18821;44.800;10.326;2023-07-13T17:24:19;31.00;99.90
32348;DHT22;18821;44.800;10.326;2023-07-13T17:26:48;30.60;99.90
32348;DHT22;18821;44.800;10.326;2023-07-13T17:29:20;31.90;99.90
32348;DHT22;18821;44.800;10.326;2023-07-13T17:31:46;30.70;99.90
32348;DHT22;18821;44.800;10.326;2023-07-13T17:34:15;30.40;99.90
32348;DHT22;18821;44.800;10.326;2023-07-13T17:36:48;30.80;99.90
32348;DHT22;18821;44.800;10.326;2023-07-13T17:39:19;30.30;99.90
32348;DHT22;18821;44.800;10.326;2023-07-13T17:41:46;30.70;99.90
32348;DHT22;18821;44.800;10.326;2023-07-13T17:44:13;31.70;99.90
32348;DHT22;18821;44.800;10.326;2023-07-13T17:46:42;30.40;99.90
32348;DHT22;18821;44.800;10.326;2023-07-13T17:49:21;30.50;99.90
32348;DHT22;18821;44.800;10.326;2023-07-13T17:51:57;30.80;99.90
32348;DHT22;18821;44.800;10.326;2023-07-13T17:54:30;30.80;99.90
32348;DHT22;18821;44.800;10.326;2023-07-13T17:57:01;30.60;99.90
32348;DHT22;18821;44.800;10.326;2023-07-13T18:04:46;31.30;99.90
32348;DHT22;18821;44.800;10.326;2023-07-13T18:14:39;32.60;99.90
32348;DHT22;18821;44.800;10.326;2023-07-13T18:17:07;31.50;99.90
32348;DHT22;18821;44.800;10.326;2023-07-13T18:19:38;31.40;99.90
32348;DHT22;18821;44.800;10.326;2023-07-13T18:22:15;31.10;99.90
32348;DHT22;18821;44.800;10.326;2023-07-13T18:24:42;30.80;99.90
32348;DHT22;18821;44.800;10.326;2023-07-13T18:29:36;30.90;99.90
32348;DHT22;18821;44.800;10.326;2023-07-13T18:34:39;30.20;99.90
32348;DHT22;18821;44.800;10.326;2023-07-13T18:37:17;30.50;99.90
32348;DHT22;18821;44.800;10.326;2023-07-13T18:39:45;30.10;99.90
32348;DHT22;18821;44.800;10.326;2023-07-13T18:42:11;30.30;99.90
32348;DHT22;18821;44.800;10.326;2023-07-13T18:47:03;30.70;99.90
32348;DHT22;18821;44.800;10.326;2023-07-13T18:51:57;29.90;99.90
32348;DHT22;18821;44.800;10.326;2023-07-13T18:56:49;29.60;99.90
32348;DHT22;18821;44.800;10.326;2023-07-13T18:59:15;29.80;99.90
32348;DHT22;18821;44.800;10.326;2023-07-13T19:04:28;29.20;99.90